sensor_id;sensor_type;location;lat;lon;timestamp;pressure;altitude;pressure_sealevel;temperature;humidity
69751;BME280;57335;52.288;6.056;2023-09-12T00:00:24;101293.31;;;19.57;100.00
69751;BME280;57335;52.288;6.056;2023-09-12T00:02:50;101287.19;;;19.57;100.00
69751;BME280;57335;52.288;6.056;2023-09-12T00:05:17;101292.22;;;19.58;100.00
69751;BME280;57335;52.288;6.056;2023-09-12T00:07:43;101286.91;;;19.58;100.00
69751;BME280;57335;52.288;6.056;2023-09-12T00:10:10;101295.97;;;19.62;100.00
69751;BME280;57335;52.288;6.056;2023-09-12T00:12:36;101306.13;;;19.65;100.00
69751;BME280;57335;52.288;6.056;2023-09-12T00:15:03;101287.75;;;19.64;100.00
69751;BME280;57335;52.288;6.056;2023-09-12T00:17:29;101288.56;;;19.64;100.00
69751;BME280;57335;52.288;6.056;2023-09-12T00:19:56;101281.66;;;19.63;100.00
69751;BME280;57335;52.288;6.056;2023-09-12T00:22:22;101275.25;;;19.59;100.00
69751;BME280;57335;52.288;6.056;2023-09-12T00:24:48;101283.47;;;19.58;100.00
69751;BME280;57335;52.288;6.056;2023-09-12T00:27:15;101265.94;;;19.57;100.00
69751;BME280;57335;52.288;6.056;2023-09-12T00:29:41;101267.22;;;19.54;100.00
69751;BME280;57335;52.288;6.056;2023-09-12T00:32:08;101257.59;;;19.48;100.00
69751;BME280;57335;52.288;6.056;2023-09-12T00:34:34;101252.28;;;19.43;100.00
69751;BME280;57335;52.288;6.056;2023-09-12T00:37:01;101249.53;;;19.32;100.00
69751;BME280;57335;52.288;6.056;2023-09-12T00:39:27;101258.25;;;19.28;100.00
69751;BME280;57335;52.288;6.056;2023-09-12T00:41:53;101261.63;;;19.18;100.00
69751;BME280;57335;52.288;6.056;2023-09-12T00:44:20;101276.22;;;19.16;100.00
69751;BME280;57335;52.288;6.056;2023-09-12T00:46:48;101260.53;;;19.14;100.00
69751;BME280;57335;52.288;6.056;2023-09-12T00:49:16;101262.38;;;19.08;100.00
69751;BME280;57335;52.288;6.056;2023-09-12T00:51:44;101265.28;;;19.07;100.00
69751;BME280;57335;52.288;6.056;2023-09-12T00:54:11;101266.81;;;19.03;100.00
69751;BME280;57335;52.288;6.056;2023-09-12T00:56:38;101276.06;;;19.00;100.00
69751;BME280;57335;52.288;6.056;2023-09-12T00:59:04;101283.78;;;18.97;100.00
69751;BME280;57335;52.288;6.056;2023-09-12T01:01:32;101287.47;;;18.96;100.00
69751;BME280;57335;52.288;6.056;2023-09-12T01:03:59;101287.16;;;18.92;100.00
69751;BME280;57335;52.288;6.056;2023-09-12T01:06:26;101282.59;;;18.87;100.00
69751;BME280;57335;52.288;6.056;2023-09-12T01:08:55;101277.81;;;18.84;100.00
69751;BME280;57335;52.288;6.056;2023-09-12T01:11:21;101278.75;;;18.78;100.00
69751;BME280;57335;52.288;6.056;2023-09-12T01:13:48;101284.03;;;18.73;100.00
69751;BME280;57335;52.288;6.056;2023-09-12T01:16:15;101288.22;;;18.69;100.00
69751;BME280;57335;52.288;6.056;2023-09-12T01:18:41;101298.00;;;18.63;100.00
69751;BME280;57335;52.288;6.056;2023-09-12T01:21:36;101297.19;;;18.63;100.00
69751;BME280;57335;52.288;6.056;2023-09-12T01:26:47;101298.22;;;18.62;100.00
69751;BME280;57335;52.288;6.056;2023-09-12T01:29:16;101296.41;;;18.62;100.00
69751;BME280;57335;52.288;6.056;2023-09-12T01:31:44;101283.91;;;18.63;100.00
69751;BME280;57335;52.288;6.056;2023-09-12T01:34:11;101286.06;;;18.66;100.00
69751;BME280;57335;52.288;6.056;2023-09-12T01:36:38;101278.09;;;18.66;100.00
69751;BME280;57335;52.288;6.056;2023-09-12T01:39:05;101271.19;;;18.65;100.00
69751;BME280;57335;52.288;6.056;2023-09-12T01:41:34;101275.72;;;18.64;100.00
69751;BME280;57335;52.288;6.056;2023-09-12T01:44:02;101277.81;;;18.62;100.00
69751;BME280;57335;52.288;6.056;2023-09-12T01:46:29;101274.53;;;18.55;100.00
69751;BME280;57335;52.288;6.056;2023-09-12T01:48:58;101267.88;;;18.52;100.00
69751;BME280;57335;52.288;6.056;2023-09-12T01:51:25;101261.47;;;18.48;100.00
69751;BME280;57335;52.288;6.056;2023-09-12T01:53:54;101260.91;;;18.46;100.00
69751;BME280;57335;52.288;6.056;2023-09-12T01:56:21;101265.66;;;18.44;100.00
69751;BME280;57335;52.288;6.056;2023-09-12T01:58:47;101277.31;;;18.43;100.00
69751;BME280;57335;52.288;6.056;2023-09-12T02:01:14;101269.03;;;18.40;100.00
69751;BME280;57335;52.288;6.056;2023-09-12T02:03:40;101269.88;;;18.40;100.00
69751;BME280;57335;52.288;6.056;2023-09-12T02:06:07;101276.78;;;18.41;100.00
69751;BME280;57335;52.288;6.056;2023-09-12T02:08:34;101269.56;;;18.37;100.00
69751;BME280;57335;52.288;6.056;2023-09-12T02:11:00;101272.22;;;18.37;100.00
69751;BME280;57335;52.288;6.056;2023-09-12T02:13:27;101271.09;;;18.32;100.00
69751;BME280;57335;52.288;6.056;2023-09-12T02:16:02;101264.41;;;18.30;100.00
69751;BME280;57335;52.288;6.056;2023-09-12T02:18:29;101264.13;;;18.26;100.00
69751;BME280;57335;52.288;6.056;2023-09-12T02:20:55;101261.47;;;18.26;100.00
69751;BME280;57335;52.288;6.056;2023-09-12T02:23:21;101259.00;;;18.20;100.00
69751;BME280;57335;52.288;6.056;2023-09-12T02:25:48;101254.19;;;18.17;100.00
69751;BME280;57335;52.288;6.056;2023-09-12T02:28:14;101249.91;;;18.16;100.00
69751;BME280;57335;52.288;6.056;2023-09-12T02:30:41;101243.03;;;18.14;100.00
69751;BME280;57335;52.288;6.056;2023-09-12T02:33:07;101249.06;;;18.10;100.00
69751;BME280;57335;52.288;6.056;2023-09-12T02:35:34;101246.59;;;18.03;100.00
69751;BME280;57335;52.288;6.056;2023-09-12T02:38:00;101249.47;;;18.02;100.00
69751;BME280;57335;52.288;6.056;2023-09-12T02:40:26;101251.84;;;17.98;100.00
69751;BME280;57335;52.288;6.056;2023-09-12T02:42:53;101248.03;;;17.94;100.00
69751;BME280;57335;52.288;6.056;2023-09-12T02:45:19;101252.78;;;17.92;100.00
69751;BME280;57335;52.288;6.056;2023-09-12T02:47:46;101247.19;;;17.88;100.00
69751;BME280;57335;52.288;6.056;2023-09-12T02:50:12;101261.50;;;17.87;100.00
69751;BME280;57335;52.288;6.056;2023-09-12T02:52:38;101270.50;;;17.86;100.00
69751;BME280;57335;52.288;6.056;2023-09-12T02:55:05;101267.50;;;17.83;100.00
69751;BME280;57335;52.288;6.056;2023-09-12T02:57:32;101265.03;;;17.76;100.00
69751;BME280;57335;52.288;6.056;2023-09-12T02:59:58;101261.81;;;17.74;100.00
69751;BME280;57335;52.288;6.056;2023-09-12T03:02:25;101266.81;;;17.70;100.00
69751;BME280;57335;52.288;6.056;2023-09-12T03:04:51;101263.28;;;17.65;100.00
69751;BME280;57335;52.288;6.056;2023-09-12T03:07:18;101267.28;;;17.67;100.00
69751;BME280;57335;52.288;6.056;2023-09-12T03:09:44;101273.13;;;17.69;100.00
69751;BME280;57335;52.288;6.056;2023-09-12T03:12:10;101265.13;;;17.64;100.00
69751;BME280;57335;52.288;6.056;2023-09-12T03:14:37;101265.41;;;17.68;100.00
69751;BME280;57335;52.288;6.056;2023-09-12T03:17:03;101261.97;;;17.67;100.00
69751;BME280;57335;52.288;6.056;2023-09-12T03:19:30;101263.59;;;17.68;100.00
69751;BME280;57335;52.288;6.056;2023-09-12T03:21:57;101275.00;;;17.69;100.00
69751;BME280;57335;52.288;6.056;2023-09-12T03:24:23;101270.72;;;17.68;100.00
69751;BME280;57335;52.288;6.056;2023-09-12T03:26:50;101276.28;;;17.66;100.00
69751;BME280;57335;52.288;6.056;2023-09-12T03:29:17;101279.16;;;17.65;100.00
69751;BME280;57335;52.288;6.056;2023-09-12T03:31:43;101273.53;;;17.61;100.00
69751;BME280;57335;52.288;6.056;2023-09-12T03:34:10;101280.94;;;17.59;100.00
69751;BME280;57335;52.288;6.056;2023-09-12T03:36:36;101279.91;;;17.60;100.00
69751;BME280;57335;52.288;6.056;2023-09-12T03:39:03;101270.34;;;17.59;100.00
69751;BME280;57335;52.288;6.056;2023-09-12T03:41:29;101269.88;;;17.62;100.00
69751;BME280;57335;52.288;6.056;2023-09-12T03:43:56;101267.78;;;17.64;100.00
69751;BME280;57335;52.288;6.056;2023-09-12T03:46:22;101262.72;;;17.63;100.00
69751;BME280;57335;52.288;6.056;2023-09-12T03:48:49;101271.47;;;17.63;100.00
69751;BME280;57335;52.288;6.056;2023-09-12T03:51:15;101275.47;;;17.66;100.00
69751;BME280;57335;52.288;6.056;2023-09-12T03:53:42;101266.47;;;17.67;100.00
69751;BME280;57335;52.288;6.056;2023-09-12T03:56:08;101261.72;;;17.69;100.00
69751;BME280;57335;52.288;6.056;2023-09-12T03:58:35;101255.38;;;17.70;100.00
69751;BME280;57335;52.288;6.056;2023-09-12T04:01:01;101250.91;;;17.70;100.00
69751;BME280;57335;52.288;6.056;2023-09-12T04:03:28;101246.88;;;17.68;100.00
69751;BME280;57335;52.288;6.056;2023-09-12T04:05:54;101239.97;;;17.67;100.00
69751;BME280;57335;52.288;6.056;2023-09-12T04:08:21;101237.00;;;17.63;100.00
69751;BME280;57335;52.288;6.056;2023-09-12T04:10:47;101246.81;;;17.63;100.00
69751;BME280;57335;52.288;6.056;2023-09-12T04:13:13;101238.53;;;17.59;100.00
69751;BME280;57335;52.288;6.056;2023-09-12T04:15:40;101244.06;;;17.58;100.00
69751;BME280;57335;52.288;6.056;2023-09-12T04:18:06;101241.91;;;17.54;100.00
69751;BME280;57335;52.288;6.056;2023-09-12T04:20:33;101236.06;;;17.52;100.00
69751;BME280;57335;52.288;6.056;2023-09-12T04:23:03;101241.91;;;17.54;100.00
69751;BME280;57335;52.288;6.056;2023-09-12T04:25:30;101241.41;;;17.58;100.00
69751;BME280;57335;52.288;6.056;2023-09-12T04:27:57;101237.97;;;17.57;100.00
69751;BME280;57335;52.288;6.056;2023-09-12T04:30:23;101235.88;;;17.59;100.00
69751;BME280;57335;52.288;6.056;2023-09-12T04:32:50;101226.34;;;17.58;100.00
69751;BME280;57335;52.288;6.056;2023-09-12T04:35:16;101231.38;;;17.60;100.00
69751;BME280;57335;52.288;6.056;2023-09-12T04:37:43;101222.63;;;17.59;100.00
69751;BME280;57335;52.288;6.056;2023-09-12T04:40:10;101220.78;;;17.60;100.00
69751;BME280;57335;52.288;6.056;2023-09-12T04:42:36;101218.94;;;17.60;100.00
69751;BME280;57335;52.288;6.056;2023-09-12T04:45:03;101218.22;;;17.65;100.00
69751;BME280;57335;52.288;6.056;2023-09-12T04:47:29;101216.84;;;17.62;100.00
69751;BME280;57335;52.288;6.056;2023-09-12T04:49:56;101222.72;;;17.64;100.00
69751;BME280;57335;52.288;6.056;2023-09-12T04:52:22;101215.78;;;17.63;100.00
69751;BME280;57335;52.288;6.056;2023-09-12T04:54:48;101220.53;;;17.61;100.00
69751;BME280;57335;52.288;6.056;2023-09-12T04:57:15;101217.56;;;17.58;100.00
69751;BME280;57335;52.288;6.056;2023-09-12T04:59:41;101212.78;;;17.54;100.00
69751;BME280;57335;52.288;6.056;2023-09-12T05:02:08;101210.59;;;17.51;100.00
69751;BME280;57335;52.288;6.056;2023-09-12T05:04:34;101210.81;;;17.50;100.00
69751;BME280;57335;52.288;6.056;2023-09-12T05:17:44;101228.28;;;17.29;100.00
69751;BME280;57335;52.288;6.056;2023-09-12T05:20:10;101227.47;;;17.28;100.00
69751;BME280;57335;52.288;6.056;2023-09-12T05:22:37;101229.81;;;17.25;100.00
69751;BME280;57335;52.288;6.056;2023-09-12T05:25:04;101233.25;;;17.25;100.00
69751;BME280;57335;52.288;6.056;2023-09-12T05:27:30;101233.25;;;17.25;100.00
69751;BME280;57335;52.288;6.056;2023-09-12T05:29:57;101235.34;;;17.23;100.00
69751;BME280;57335;52.288;6.056;2023-09-12T05:32:23;101244.00;;;17.19;100.00
69751;BME280;57335;52.288;6.056;2023-09-12T05:34:49;101253.25;;;17.16;100.00
69751;BME280;57335;52.288;6.056;2023-09-12T05:37:19;101262.22;;;17.15;100.00
69751;BME280;57335;52.288;6.056;2023-09-12T05:39:46;101264.53;;;17.11;100.00
69751;BME280;57335;52.288;6.056;2023-09-12T05:42:12;101258.44;;;17.11;100.00
69751;BME280;57335;52.288;6.056;2023-09-12T05:44:39;101266.16;;;17.12;100.00
69751;BME280;57335;52.288;6.056;2023-09-12T05:47:05;101267.50;;;17.15;100.00
69751;BME280;57335;52.288;6.056;2023-09-12T05:49:32;101256.19;;;17.20;100.00
69751;BME280;57335;52.288;6.056;2023-09-12T05:51:58;101258.16;;;17.24;100.00
69751;BME280;57335;52.288;6.056;2023-09-12T05:54:24;101264.56;;;17.28;100.00
69751;BME280;57335;52.288;6.056;2023-09-12T05:56:51;101266.16;;;17.29;100.00
69751;BME280;57335;52.288;6.056;2023-09-12T05:59:18;101268.81;;;17.29;100.00
69751;BME280;57335;52.288;6.056;2023-09-12T06:01:44;101275.72;;;17.30;100.00
69751;BME280;57335;52.288;6.056;2023-09-12T06:04:10;101280.22;;;17.30;100.00
69751;BME280;57335;52.288;6.056;2023-09-12T06:06:37;101282.06;;;17.29;100.00
69751;BME280;57335;52.288;6.056;2023-09-12T06:09:04;101264.56;;;17.28;100.00
69751;BME280;57335;52.288;6.056;2023-09-12T06:11:30;101263.03;;;17.32;100.00
69751;BME280;57335;52.288;6.056;2023-09-12T06:13:57;101269.78;;;17.40;100.00
69751;BME280;57335;52.288;6.056;2023-09-12T06:16:23;101277.56;;;17.47;100.00
69751;BME280;57335;52.288;6.056;2023-09-12T06:18:49;101281.91;;;17.53;100.00
69751;BME280;57335;52.288;6.056;2023-09-12T06:21:16;101280.47;;;17.62;100.00
69751;BME280;57335;52.288;6.056;2023-09-12T06:23:42;101279.78;;;17.72;100.00
69751;BME280;57335;52.288;6.056;2023-09-12T06:26:09;101276.44;;;17.77;100.00
69751;BME280;57335;52.288;6.056;2023-09-12T06:28:38;101280.75;;;17.83;100.00
69751;BME280;57335;52.288;6.056;2023-09-12T06:31:07;101286.72;;;17.90;100.00
69751;BME280;57335;52.288;6.056;2023-09-12T06:33:34;101282.53;;;17.94;100.00
69751;BME280;57335;52.288;6.056;2023-09-12T06:36:00;101294.09;;;18.05;100.00
69751;BME280;57335;52.288;6.056;2023-09-12T06:38:27;101291.25;;;18.11;100.00
69751;BME280;57335;52.288;6.056;2023-09-12T06:40:53;101300.56;;;18.14;100.00
69751;BME280;57335;52.288;6.056;2023-09-12T06:43:19;101305.88;;;18.14;100.00
69751;BME280;57335;52.288;6.056;2023-09-12T06:45:47;101306.75;;;18.20;100.00
69751;BME280;57335;52.288;6.056;2023-09-12T06:48:13;101298.00;;;18.19;100.00
69751;BME280;57335;52.288;6.056;2023-09-12T06:50:40;101298.34;;;18.28;100.00
69751;BME280;57335;52.288;6.056;2023-09-12T06:53:06;101302.38;;;18.30;100.00
69751;BME280;57335;52.288;6.056;2023-09-12T06:55:33;101303.53;;;18.40;100.00
69751;BME280;57335;52.288;6.056;2023-09-12T06:58:00;101312.44;;;18.50;100.00
69751;BME280;57335;52.288;6.056;2023-09-12T07:00:26;101317.56;;;18.57;100.00
69751;BME280;57335;52.288;6.056;2023-09-12T07:02:53;101320.88;;;18.69;100.00
69751;BME280;57335;52.288;6.056;2023-09-12T07:05:19;101314.91;;;18.79;100.00
69751;BME280;57335;52.288;6.056;2023-09-12T07:07:46;101321.97;;;18.90;100.00
69751;BME280;57335;52.288;6.056;2023-09-12T07:10:13;101322.38;;;19.04;100.00
69751;BME280;57335;52.288;6.056;2023-09-12T07:12:50;101325.84;;;19.10;100.00
69751;BME280;57335;52.288;6.056;2023-09-12T07:15:16;101320.59;;;19.15;100.00
69751;BME280;57335;52.288;6.056;2023-09-12T07:21:09;101320.69;;;19.25;100.00
69751;BME280;57335;52.288;6.056;2023-09-12T07:23:35;101323.91;;;19.27;100.00
69751;BME280;57335;52.288;6.056;2023-09-12T07:26:02;101319.13;;;19.29;100.00
69751;BME280;57335;52.288;6.056;2023-09-12T07:28:30;101317.81;;;19.32;100.00
69751;BME280;57335;52.288;6.056;2023-09-12T07:49:26;101319.28;;;20.25;100.00
69751;BME280;57335;52.288;6.056;2023-09-12T07:51:53;101318.28;;;20.41;100.00
69751;BME280;57335;52.288;6.056;2023-09-12T07:54:19;101315.72;;;20.62;100.00
69751;BME280;57335;52.288;6.056;2023-09-12T07:56:46;101317.38;;;20.83;100.00
69751;BME280;57335;52.288;6.056;2023-09-12T07:59:12;101317.97;;;21.01;100.00
69751;BME280;57335;52.288;6.056;2023-09-12T08:01:38;101313.41;;;21.17;100.00
69751;BME280;57335;52.288;6.056;2023-09-12T08:04:05;101317.44;;;21.29;100.00
69751;BME280;57335;52.288;6.056;2023-09-12T08:06:32;101311.59;;;21.43;100.00
69751;BME280;57335;52.288;6.056;2023-09-12T08:12:03;101294.78;;;21.63;100.00
69751;BME280;57335;52.288;6.056;2023-09-12T08:14:29;101313.97;;;21.80;100.00
69751;BME280;57335;52.288;6.056;2023-09-12T08:16:56;101304.09;;;21.86;100.00
69751;BME280;57335;52.288;6.056;2023-09-12T08:19:22;101300.31;;;21.92;100.00
69751;BME280;57335;52.288;6.056;2023-09-12T08:21:48;101294.72;;;21.94;100.00
69751;BME280;57335;52.288;6.056;2023-09-12T08:24:15;101290.72;;;21.96;100.00
69751;BME280;57335;52.288;6.056;2023-09-12T08:26:41;101306.16;;;22.04;100.00
69751;BME280;57335;52.288;6.056;2023-09-12T08:29:08;101313.38;;;22.04;100.00
69751;BME280;57335;52.288;6.056;2023-09-12T08:31:34;101314.72;;;22.01;100.00
69751;BME280;57335;52.288;6.056;2023-09-12T08:34:00;101321.91;;;22.06;100.00
69751;BME280;57335;52.288;6.056;2023-09-12T08:36:27;101322.44;;;22.08;100.00
69751;BME280;57335;52.288;6.056;2023-09-12T08:38:53;101318.94;;;22.13;100.00
69751;BME280;57335;52.288;6.056;2023-09-12T08:41:20;101324.81;;;22.20;100.00
69751;BME280;57335;52.288;6.056;2023-09-12T08:43:47;101335.13;;;22.52;100.00
69751;BME280;57335;52.288;6.056;2023-09-12T08:46:15;101335.63;;;23.09;100.00
69751;BME280;57335;52.288;6.056;2023-09-12T08:48:42;101327.03;;;23.81;100.00
69751;BME280;57335;52.288;6.056;2023-09-12T08:51:11;101325.72;;;24.51;100.00
69751;BME280;57335;52.288;6.056;2023-09-12T08:53:37;101332.47;;;25.24;100.00
69751;BME280;57335;52.288;6.056;2023-09-12T08:56:04;101335.31;;;25.93;96.65
69751;BME280;57335;52.288;6.056;2023-09-12T08:58:32;101334.59;;;26.57;93.17
69751;BME280;57335;52.288;6.056;2023-09-12T09:00:59;101333.22;;;27.18;87.77
69751;BME280;57335;52.288;6.056;2023-09-12T09:03:27;101344.03;;;27.81;82.93
69751;BME280;57335;52.288;6.056;2023-09-12T09:05:55;101332.78;;;28.36;81.67
69751;BME280;57335;52.288;6.056;2023-09-12T09:08:23;101325.25;;;28.91;78.67
69751;BME280;57335;52.288;6.056;2023-09-12T09:11:01;101336.94;;;29.47;74.97
69751;BME280;57335;52.288;6.056;2023-09-12T09:13:27;101333.94;;;29.87;72.51
69751;BME280;57335;52.288;6.056;2023-09-12T09:16:15;101338.16;;;30.35;68.24
69751;BME280;57335;52.288;6.056;2023-09-12T09:18:54;101339.13;;;30.73;67.15
69751;BME280;57335;52.288;6.056;2023-09-12T09:21:25;101328.09;;;30.99;66.59
69751;BME280;57335;52.288;6.056;2023-09-12T09:23:55;101328.97;;;31.24;64.14
69751;BME280;57335;52.288;6.056;2023-09-12T09:26:21;101330.59;;;31.37;61.58
69751;BME280;57335;52.288;6.056;2023-09-12T09:29:08;101334.22;;;31.41;62.19
69751;BME280;57335;52.288;6.056;2023-09-12T09:31:35;101324.94;;;31.42;60.88
69751;BME280;57335;52.288;6.056;2023-09-12T09:34:02;101326.78;;;31.51;61.36
69751;BME280;57335;52.288;6.056;2023-09-12T09:36:28;101326.78;;;31.63;61.58
69751;BME280;57335;52.288;6.056;2023-09-12T09:38:56;101335.16;;;31.70;60.94
69751;BME280;57335;52.288;6.056;2023-09-12T09:41:23;101334.16;;;31.75;60.84
69751;BME280;57335;52.288;6.056;2023-09-12T09:43:52;101328.97;;;31.70;59.32
69751;BME280;57335;52.288;6.056;2023-09-12T09:46:19;101326.72;;;31.72;58.45
69751;BME280;57335;52.288;6.056;2023-09-12T09:48:49;101332.13;;;31.59;57.26
69751;BME280;57335;52.288;6.056;2023-09-12T09:51:17;101328.34;;;31.39;57.76
69751;BME280;57335;52.288;6.056;2023-09-12T09:53:43;101329.44;;;31.26;59.07
69751;BME280;57335;52.288;6.056;2023-09-12T09:56:11;101326.91;;;31.09;58.12
69751;BME280;57335;52.288;6.056;2023-09-12T09:58:52;101325.84;;;31.01;58.06
69751;BME280;57335;52.288;6.056;2023-09-12T10:01:21;101336.31;;;30.90;59.41
69751;BME280;57335;52.288;6.056;2023-09-12T10:03:49;101326.41;;;30.73;59.48
69751;BME280;57335;52.288;6.056;2023-09-12T10:06:17;101338.28;;;30.60;59.78
69751;BME280;57335;52.288;6.056;2023-09-12T10:08:45;101338.41;;;30.42;59.07
69751;BME280;57335;52.288;6.056;2023-09-12T10:11:15;101346.16;;;30.23;59.44
69751;BME280;57335;52.288;6.056;2023-09-12T10:14:05;101344.00;;;30.08;60.58
69751;BME280;57335;52.288;6.056;2023-09-12T10:16:36;101343.25;;;29.98;60.83
69751;BME280;57335;52.288;6.056;2023-09-12T10:19:13;101345.69;;;29.91;61.00
69751;BME280;57335;52.288;6.056;2023-09-12T10:21:49;101341.13;;;29.83;61.85
69751;BME280;57335;52.288;6.056;2023-09-12T10:24:16;101349.84;;;29.80;62.55
69751;BME280;57335;52.288;6.056;2023-09-12T10:26:43;101339.38;;;29.78;62.43
69751;BME280;57335;52.288;6.056;2023-09-12T10:29:12;101340.69;;;29.63;59.86
69751;BME280;57335;52.288;6.056;2023-09-12T10:31:39;101356.78;;;29.42;60.88
69751;BME280;57335;52.288;6.056;2023-09-12T10:34:06;101355.72;;;29.17;61.52
69751;BME280;57335;52.288;6.056;2023-09-12T10:36:33;101350.63;;;29.07;62.23
69751;BME280;57335;52.288;6.056;2023-09-12T10:39:00;101348.41;;;29.00;60.54
69751;BME280;57335;52.288;6.056;2023-09-12T10:41:27;101346.97;;;28.94;62.47
69751;BME280;57335;52.288;6.056;2023-09-12T10:43:55;101347.31;;;28.84;63.88
69751;BME280;57335;52.288;6.056;2023-09-12T10:46:23;101356.81;;;28.90;62.99
69751;BME280;57335;52.288;6.056;2023-09-12T10:48:50;101349.06;;;28.89;62.92
69751;BME280;57335;52.288;6.056;2023-09-12T10:51:17;101356.19;;;28.93;61.14
69751;BME280;57335;52.288;6.056;2023-09-12T10:53:46;101340.16;;;28.88;64.34
69751;BME280;57335;52.288;6.056;2023-09-12T11:01:27;101316.19;;;28.87;59.90
69751;BME280;57335;52.288;6.056;2023-09-12T11:03:55;101322.88;;;28.63;60.24
69751;BME280;57335;52.288;6.056;2023-09-12T11:06:27;101331.84;;;28.32;61.10
69751;BME280;57335;52.288;6.056;2023-09-12T11:11:43;101339.00;;;27.88;63.30
69751;BME280;57335;52.288;6.056;2023-09-12T11:14:09;101331.66;;;27.80;64.75
69751;BME280;57335;52.288;6.056;2023-09-12T11:16:36;101328.22;;;27.88;64.21
69751;BME280;57335;52.288;6.056;2023-09-12T11:19:22;101333.69;;;28.05;62.30
69751;BME280;57335;52.288;6.056;2023-09-12T11:21:53;101340.50;;;28.03;65.30
69751;BME280;57335;52.288;6.056;2023-09-12T11:24:20;101335.06;;;27.94;63.01
69751;BME280;57335;52.288;6.056;2023-09-12T11:29:29;101323.44;;;27.85;64.31
69751;BME280;57335;52.288;6.056;2023-09-12T11:31:59;101321.53;;;27.85;65.42
69751;BME280;57335;52.288;6.056;2023-09-12T11:34:26;101320.81;;;27.94;64.64
69751;BME280;57335;52.288;6.056;2023-09-12T11:36:57;101324.81;;;28.05;63.22
69751;BME280;57335;52.288;6.056;2023-09-12T11:39:25;101323.53;;;28.02;64.34
69751;BME280;57335;52.288;6.056;2023-09-12T11:41:51;101324.66;;;28.10;62.26
69751;BME280;57335;52.288;6.056;2023-09-12T11:44:19;101319.38;;;27.96;61.26
69751;BME280;57335;52.288;6.056;2023-09-12T11:46:47;101318.41;;;27.92;63.52
69751;BME280;57335;52.288;6.056;2023-09-12T11:49:15;101310.75;;;27.77;63.64
69751;BME280;57335;52.288;6.056;2023-09-12T11:51:51;101327.31;;;27.61;65.27
69751;BME280;57335;52.288;6.056;2023-09-12T11:54:20;101313.41;;;27.37;65.83
69751;BME280;57335;52.288;6.056;2023-09-12T11:56:47;101310.97;;;27.27;67.47
69751;BME280;57335;52.288;6.056;2023-09-12T11:59:14;101321.47;;;27.14;68.63
69751;BME280;57335;52.288;6.056;2023-09-12T12:01:41;101306.38;;;27.04;68.53
69751;BME280;57335;52.288;6.056;2023-09-12T12:04:08;101308.50;;;26.94;69.04
69751;BME280;57335;52.288;6.056;2023-09-12T12:06:35;101302.19;;;26.76;69.48
69751;BME280;57335;52.288;6.056;2023-09-12T12:09:02;101299.72;;;26.65;68.56
69751;BME280;57335;52.288;6.056;2023-09-12T12:11:28;101303.94;;;26.58;68.61
69751;BME280;57335;52.288;6.056;2023-09-12T12:13:55;101298.75;;;26.47;69.57
69751;BME280;57335;52.288;6.056;2023-09-12T12:16:21;101291.41;;;26.39;69.15
69751;BME280;57335;52.288;6.056;2023-09-12T12:18:51;101292.63;;;26.33;69.51
69751;BME280;57335;52.288;6.056;2023-09-12T12:21:17;101284.78;;;26.23;70.55
69751;BME280;57335;52.288;6.056;2023-09-12T12:23:44;101291.66;;;26.15;70.89
69751;BME280;57335;52.288;6.056;2023-09-12T12:26:11;101296.03;;;26.11;70.59
69751;BME280;57335;52.288;6.056;2023-09-12T12:28:38;101300.19;;;26.03;71.61
69751;BME280;57335;52.288;6.056;2023-09-12T12:31:04;101300.91;;;25.95;70.88
69751;BME280;57335;52.288;6.056;2023-09-12T12:33:31;101284.47;;;25.83;71.42
69751;BME280;57335;52.288;6.056;2023-09-12T12:36:01;101281.09;;;25.77;72.56
69751;BME280;57335;52.288;6.056;2023-09-12T12:38:33;101278.00;;;25.70;72.76
69751;BME280;57335;52.288;6.056;2023-09-12T12:41:01;101293.00;;;25.71;73.71
69751;BME280;57335;52.288;6.056;2023-09-12T12:43:27;101293.63;;;25.68;74.48
69751;BME280;57335;52.288;6.056;2023-09-12T12:45:55;101282.06;;;25.67;75.30
69751;BME280;57335;52.288;6.056;2023-09-12T12:48:32;101277.69;;;25.72;74.40
69751;BME280;57335;52.288;6.056;2023-09-12T12:51:05;101268.75;;;25.76;73.18
69751;BME280;57335;52.288;6.056;2023-09-12T12:53:39;101278.94;;;25.93;72.78
69751;BME280;57335;52.288;6.056;2023-09-12T12:56:12;101271.94;;;26.20;71.55
69751;BME280;57335;52.288;6.056;2023-09-12T12:58:39;101270.41;;;26.41;70.43
69751;BME280;57335;52.288;6.056;2023-09-12T13:01:05;101264.91;;;26.60;69.34
69751;BME280;57335;52.288;6.056;2023-09-12T13:03:31;101274.56;;;26.84;69.65
69751;BME280;57335;52.288;6.056;2023-09-12T13:05:58;101266.03;;;27.04;70.98
69751;BME280;57335;52.288;6.056;2023-09-12T13:08:24;101266.69;;;27.33;69.04
69751;BME280;57335;52.288;6.056;2023-09-12T13:10:51;101259.13;;;27.43;68.31
69751;BME280;57335;52.288;6.056;2023-09-12T13:13:20;101261.72;;;27.66;67.08
69751;BME280;57335;52.288;6.056;2023-09-12T13:15:46;101257.50;;;27.74;67.68
69751;BME280;57335;52.288;6.056;2023-09-12T13:18:12;101266.72;;;27.81;65.45
69751;BME280;57335;52.288;6.056;2023-09-12T13:20:39;101259.75;;;27.80;64.47
69751;BME280;57335;52.288;6.056;2023-09-12T13:23:05;101256.69;;;27.73;64.70
69751;BME280;57335;52.288;6.056;2023-09-12T13:25:31;101249.56;;;27.69;63.38
69751;BME280;57335;52.288;6.056;2023-09-12T13:27:58;101259.38;;;27.64;63.74
69751;BME280;57335;52.288;6.056;2023-09-12T13:30:24;101259.97;;;27.61;64.10
69751;BME280;57335;52.288;6.056;2023-09-12T13:32:51;101258.34;;;27.52;63.86